Tutti
Dickson Muni Airport (Dickson, TN) M02 Meteo
|
Dickson, TN (M02)
Cielo sereno
Venti calmi |
|
23 °C |
There is no TAF data available at M02 or any nearby airports.
Storico METAR M02 recente
| Date | Time (CDT) | Flight Rules | Wind Dir. | Speed | Type | Height AGL (ft) | Visibility | Temp (°C) | Temp (°F) | Dew Point (°C) | Dew Point (°F) | Rel. Humid. | Pressure | Density Altitude | Remarks |
|---|---|---|---|---|---|---|---|---|---|---|---|---|---|---|---|
| 02-set | 02:55 | VFR | Calm | 10 miles | 23° | 73° | 21° | 69° | 89% | 30.06 in Hg | 1.712 ft | ||||
| 02-set | 02:35 | VFR | Calm | 10 miles | 24° | 75° | 21° | 69° | 83% | 30.05 in Hg | 1.842 ft | ||||
| 02-set | 02:15 | VFR | Calm | 10 miles | 24° | 75° | 21° | 69° | 83% | 30.06 in Hg | 1.832 ft | ||||
| 02-set | 01:55 | VFR | Calm | 10 miles | 24° | 75° | 21° | 69° | 83% | 30.06 in Hg | 1.832 ft | ||||
| 02-set | 01:15 | VFR | Calm | 10 miles | 24° | 75° | 21° | 69° | 83% | 30.06 in Hg | 1.832 ft | ||||
| 02-set | 00:55 | VFR | Calm | 10 miles | 24° | 75° | 21° | 69° | 83% | 30.06 in Hg | 1.832 ft | ||||
| 02-set | 00:35 | VFR | Calm | 10 miles | 24° | 75° | 22° | 71° | 89% | 30.06 in Hg | 1.832 ft | ||||
| 02-set | 00:15 | VFR | Calm | 10 miles | 24° | 75° | 21° | 69° | 83% | 30.06 in Hg | 1.832 ft | ||||
| 01-set | 23:35 | VFR | Calm | 10 miles | 24° | 75° | 22° | 71° | 89% | 30.06 in Hg | 1.832 ft | ||||
| 01-set | 23:15 | VFR | Calm | 10 miles | 24° | 75° | 22° | 71° | 89% | 30.06 in Hg | 1.832 ft | ||||
| 01-set | 22:55 | VFR | Calm | 10 miles | 24° | 75° | 22° | 71° | 89% | 30.06 in Hg | 1.832 ft | ||||
| 01-set | 22:15 | VFR | Calm | 10 miles | 24° | 75° | 22° | 71° | 89% | 30.07 in Hg | 1.822 ft | ||||
| 01-set | 21:55 | VFR | Calm | 10 miles | 25° | 77° | 22° | 71° | 83% | 30.07 in Hg | 1.942 ft | ||||
| 01-set | 21:35 | VFR | Calm | 10 miles | 25° | 77° | 22° | 71° | 83% | 30.07 in Hg | 1.942 ft | ||||
| 01-set | 21:15 | VFR | Calm | 10 miles | 25° | 77° | 22° | 71° | 83% | 30.07 in Hg | 1.942 ft | ||||
| 01-set | 20:55 | VFR | Calm | 10 miles | 25° | 77° | 22° | 71° | 83% | 30.07 in Hg | 1.942 ft | ||||
| 01-set | 20:35 | VFR | Calm | 10 miles | 26° | 78° | 23° | 73° | 84% | 30.06 in Hg | 2.072 ft | ||||
| 01-set | 20:15 | VFR | Calm | 10 miles | 26° | 78° | 23° | 73° | 84% | 30.06 in Hg | 2.072 ft | ||||
| 01-set | 19:55 | VFR | Calm | 10 miles | 27° | 80° | 22° | 71° | 74% | 30.05 in Hg | 2.202 ft | ||||
| 01-set | 19:15 | VFR | Calm | 10 miles | 29° | 84° | 22° | 71° | 66% | 30.05 in Hg | 2.442 ft | ||||
| 01-set | 18:55 | VFR | Calm | 10 miles | 30° | 86° | 21° | 69° | 59% | 30.05 in Hg | 2.562 ft | ||||
| 01-set | 18:15 | VFR | Calm | 10 miles | 33° | 91° | 20° | 68° | 46% | 30.06 in Hg | 2.912 ft | ||||
| 01-set | 17:55 | VFR | 220° | 3 kt | 10 miles | 34° | 93° | 19° | 66° | 41% | 30.06 in Hg | 3.032 ft | |||
| 01-set | 17:35 | VFR | 210° | 4 kt | 10 miles | 34° | 93° | 18° | 64° | 39% | 30.06 in Hg | 3.032 ft |
Accedi
| Il tuo browser non è supportato. fai l'upgrade del tuo browser |
